Time;durP1;ratioP1;P1;durP2;ratioP2;P2;SDS_P1;SDS_P2;PMS_P1;PMS_P2;Temp;Humidity;BMP_temperature;BMP_pressure;BME280_temperature;BME280_humidity;BME280_pressure;Samples;Min_cycle;Max_cycle;Signal;HPM_P1;HPM_P2
2022/10/12 00:00:08;;;;;;;;;;;;;;;7.04;73.27;102482.91;5025493;28;19929;-60
2022/10/12 00:02:33;;;;;;;;;;;;;;;7.04;73.46;102482.91;5021499;28;19967;-61
2022/10/12 00:04:58;;;;;;;;;;;;;;;7.04;73.21;102474.97;5028275;28;19921;-60
2022/10/12 00:07:24;;;;;;;;;;;;;;;7.05;73.30;102474.03;5027890;28;19925;-61
2022/10/12 00:09:49;;;;;;;;;;;;;;;7.04;73.35;102469.69;5029079;28;19970;-61
2022/10/12 00:12:14;;;;;;;;;;;;;;;7.04;73.08;102476.78;5023322;28;19925;-61
2022/10/12 00:14:39;;;;;;;;;;;;;;;7.03;73.36;102475.94;5027517;28;20065;-61
2022/10/12 00:17:04;;;;;;;;;;;;;;;7.02;73.26;102474.25;5033444;28;20368;-61
2022/10/12 00:19:29;;;;;;;;;;;;;;;7.00;73.18;102473.50;5027803;28;20483;-61
2022/10/12 00:21:55;;;;;;;;;;;;;;;6.99;73.26;102487.66;5032178;28;19920;-60
2022/10/12 00:24:20;;;;;;;;;;;;;;;6.96;73.33;102482.59;5027069;28;19917;-61
2022/10/12 00:26:45;;;;;;;;;;;;;;;6.94;72.94;102494.19;5024736;28;19942;-61
2022/10/12 00:29:10;;;;;;;;;;;;;;;6.88;73.35;102490.19;5029605;28;19917;-61
2022/10/12 00:31:35;;;;;;;;;;;;;;;6.82;73.19;102493.25;5028039;28;19925;-61
2022/10/12 00:34:01;;;;;;;;;;;;;;;6.77;73.51;102495.38;5032852;28;20296;-61
2022/10/12 00:36:28;;;;;;;;;;;;;;;6.77;73.65;102490.09;5025485;28;19917;-61
2022/10/12 00:38:54;;;;;;;;;;;;;;;6.78;73.56;102490.00;5025110;28;19931;-61
2022/10/12 00:41:21;;;;;;;;;;;;;;;6.76;73.29;102483.97;5024083;28;19917;-60
2022/10/12 00:43:47;;;;;;;;;;;;;;;6.77;73.76;102485.66;5029439;28;19917;-61
2022/10/12 00:46:12;;;;;;;;;;;;;;;6.77;73.73;102487.44;5028536;28;19921;-60
2022/10/12 00:48:37;;;;;;;;;;;;;;;6.76;74.03;102483.97;5026189;28;19920;-61
2022/10/12 00:51:03;;;;;;;;;;;;;;;6.75;73.89;102492.84;5024395;28;19932;-61
2022/10/12 00:53:32;;;;;;;;;;;;;;;6.73;74.13;102486.81;5022914;28;19918;-61
2022/10/12 00:55:59;;;;;;;;;;;;;;;6.71;74.42;102479.97;5026658;28;20456;-61
2022/10/12 00:58:25;;;;;;;;;;;;;;;6.67;74.43;102489.88;5028453;28;20407;-61
2022/10/12 01:00:50;;;;;;;;;;;;;;;6.67;74.35;102494.31;5025338;28;19950;-61
2022/10/12 01:03:18;;;;;;;;;;;;;;;6.67;74.40;102483.75;5023986;28;19925;-61
2022/10/12 01:05:43;;;;;;;;;;;;;;;6.60;74.32;102471.91;5021278;28;20055;-61
2022/10/12 01:08:09;;;;;;;;;;;;;;;6.70;74.16;102478.28;5026979;28;20008;-61
2022/10/12 01:10:34;;;;;;;;;;;;;;;6.72;74.09;102471.94;5016144;28;19928;-60
2022/10/12 01:12:59;;;;;;;;;;;;;;;6.74;74.40;102474.47;5027989;28;20384;-61
2022/10/12 01:15:27;;;;;;;;;;;;;;;6.74;74.53;102467.38;5022481;28;19924;-60
2022/10/12 01:17:59;;;;;;;;;;;;;;;6.75;74.56;102466.44;5024299;28;19924;-61
2022/10/12 01:20:24;;;;;;;;;;;;;;;6.76;74.70;102469.91;5020816;28;19931;-61
2022/10/12 01:23:08;;;;;;;;;;;;;;;6.76;74.43;102459.34;5020738;28;19925;-61
2022/10/12 01:25:47;;;;;;;;;;;;;;;6.78;74.91;102454.81;5032217;28;19925;-61
2022/10/12 01:28:21;;;;;;;;;;;;;;;6.78;74.70;102452.19;5022554;28;19917;-61
2022/10/12 01:30:49;;;;;;;;;;;;;;;6.78;75.26;102450.38;5028631;28;19928;-61
2022/10/12 01:33:30;;;;;;;;;;;;;;;6.78;75.29;102441.63;5028398;28;19925;-61
2022/10/12 01:36:11;;;;;;;;;;;;;;;6.77;74.96;102450.50;5028143;28;19924;-61
2022/10/12 01:38:39;;;;;;;;;;;;;;;6.78;75.02;102454.81;5032321;28;19960;-61
2022/10/12 01:41:14;;;;;;;;;;;;;;;6.82;74.95;102448.38;5026816;28;19921;-61
2022/10/12 01:43:40;;;;;;;;;;;;;;;6.86;75.35;102435.78;5025799;28;19917;-60
2022/10/12 01:46:26;;;;;;;;;;;;;;;6.82;75.39;102436.00;5030409;28;19917;-61
2022/10/12 01:48:56;;;;;;;;;;;;;;;6.83;75.31;102436.84;5011662;28;19960;-61
2022/10/12 01:51:30;;;;;;;;;;;;;;;6.85;75.43;102434.94;5022857;28;20003;-61
2022/10/12 01:53:55;;;;;;;;;;;;;;;6.87;75.34;102437.47;5030789;28;19975;-61
2022/10/12 01:56:23;;;;;;;;;;;;;;;6.86;75.20;102434.00;5028503;28;19956;-61
2022/10/12 01:58:54;;;;;;;;;;;;;;;6.87;75.32;102433.03;5027413;28;20323;-61
2022/10/12 02:01:55;;;;;;;;;;;;;;;6.84;75.32;102431.47;5028751;28;20016;-61
2022/10/12 02:04:24;;;;;;;;;;;;;;;6.84;75.46;102427.97;4923216;29;19915;-61
2022/10/12 02:06:57;;;;;;;;;;;;;;;6.84;75.64;102430.63;5013804;28;19964;-61
2022/10/12 02:09:25;;;;;;;;;;;;;;;6.79;75.54;102427.47;5029212;28;20507;-61
2022/10/12 02:11:51;;;;;;;;;;;;;;;6.75;75.32;102423.34;5030844;28;19917;-61
2022/10/12 02:14:18;;;;;;;;;;;;;;;6.72;75.53;102421.78;5035424;28;19921;-60
2022/10/12 02:17:00;;;;;;;;;;;;;;;6.71;75.28;102420.09;5031416;28;20507;-61
2022/10/12 02:19:26;;;;;;;;;;;;;;;6.71;75.61;102413.97;5030755;28;19929;-61
2022/10/12 02:21:53;;;;;;;;;;;;;;;6.71;75.87;102424.53;5029251;28;19928;-61
2022/10/12 02:24:19;;;;;;;;;;;;;;;6.70;75.87;102418.41;5034603;28;19916;-61
2022/10/12 02:26:46;;;;;;;;;;;;;;;6.71;76.08;102408.69;5030019;28;19917;-60
2022/10/12 02:29:13;;;;;;;;;;;;;;;6.70;76.08;102409.63;5021804;28;19921;-61
2022/10/12 02:31:44;;;;;;;;;;;;;;;6.68;75.97;102407.09;5027004;28;19923;-61
2022/10/12 02:34:11;;;;;;;;;;;;;;;6.67;76.05;102405.41;5027946;28;19943;-61
2022/10/12 02:36:40;;;;;;;;;;;;;;;6.64;75.80;102410.03;5033123;28;19917;-61
2022/10/12 02:39:12;;;;;;;;;;;;;;;6.61;75.96;102412.88;5023182;28;20099;-61
2022/10/12 02:41:41;;;;;;;;;;;;;;;6.53;76.04;102411.63;5023398;28;19921;-61
2022/10/12 02:44:09;;;;;;;;;;;;;;;6.48;76.10;102410.25;5027525;28;20277;-61
2022/10/12 02:46:35;;;;;;;;;;;;;;;6.45;75.78;102410.47;5031632;28;19923;-61
2022/10/12 02:49:01;;;;;;;;;;;;;;;6.40;75.95;102409.94;5027076;28;20377;-61
2022/10/12 02:51:28;;;;;;;;;;;;;;;6.34;76.20;102408.56;5030963;28;19913;-61
2022/10/12 02:53:53;;;;;;;;;;;;;;;6.28;75.92;102403.69;5025582;28;20304;-61
2022/10/12 02:56:19;;;;;;;;;;;;;;;6.26;75.77;102402.13;5027796;28;19925;-60
2022/10/12 02:58:45;;;;;;;;;;;;;;;6.28;75.70;102400.22;5031573;28;19921;-60
2022/10/12 03:01:10;;;;;;;;;;;;;;;6.30;76.10;102390.41;5030076;28;19923;-60
2022/10/12 03:03:35;;;;;;;;;;;;;;;6.31;76.05;102390.28;5022515;28;20015;-60
2022/10/12 03:06:01;;;;;;;;;;;;;;;6.30;76.09;102390.41;5031966;28;19913;-60
2022/10/12 03:08:26;;;;;;;;;;;;;;;6.26;75.96;102395.03;5034412;28;20396;-61
2022/10/12 03:10:51;;;;;;;;;;;;;;;6.23;76.00;102392.63;5032686;28;20008;-61
2022/10/12 03:13:16;;;;;;;;;;;;;;;6.22;76.05;102388.28;5027741;28;19944;-60
2022/10/12 03:15:42;;;;;;;;;;;;;;;6.23;76.18;102392.63;5029202;28;19948;-61
2022/10/12 03:18:07;;;;;;;;;;;;;;;6.22;76.23;102386.50;5028577;28;20327;-60
2022/10/12 03:20:32;;;;;;;;;;;;;;;6.23;76.42;102387.34;5031109;28;19963;-61
2022/10/12 03:22:57;;;;;;;;;;;;;;;6.22;76.18;102377.75;5020982;28;19980;-61
2022/10/12 03:25:22;;;;;;;;;;;;;;;6.22;76.45;102383.88;5028527;28;19921;-61
2022/10/12 03:27:48;;;;;;;;;;;;;;;6.20;76.54;102383.13;5030730;28;20003;-61
2022/10/12 03:30:13;;;;;;;;;;;;;;;6.21;76.55;102386.59;5029141;28;19964;-61
2022/10/12 03:32:38;;;;;;;;;;;;;;;6.11;76.64;102372.38;5024221;28;19917;-61
2022/10/12 03:35:04;;;;;;;;;;;;;;;6.14;76.69;102380.06;5027212;28;19920;-61
2022/10/12 03:37:29;;;;;;;;;;;;;;;6.11;76.48;102380.28;5031174;28;19925;-60
2022/10/12 03:39:54;;;;;;;;;;;;;;;6.05;76.77;102381.50;5028091;28;19969;-61
2022/10/12 03:42:19;;;;;;;;;;;;;;;6.03;76.47;102377.28;5029965;28;19925;-61
2022/10/12 03:44:44;;;;;;;;;;;;;;;6.02;76.61;102384.34;5021670;28;19921;-61
2022/10/12 03:47:10;;;;;;;;;;;;;;;6.01;76.74;102387.09;5022858;28;19924;-61
2022/10/12 03:49:35;;;;;;;;;;;;;;;5.99;76.65;102381.09;5031434;28;19921;-60
2022/10/12 03:52:00;;;;;;;;;;;;;;;5.99;76.64;102389.00;5026574;28;19913;-61
2022/10/12 03:54:25;;;;;;;;;;;;;;;5.99;76.68;102375.81;5031334;28;19919;-61
2022/10/12 03:56:50;;;;;;;;;;;;;;;5.99;76.62;102370.53;5026319;28;19935;-61
2022/10/12 03:59:16;;;;;;;;;;;;;;;6.00;76.62;102377.50;5027576;28;21887;-61
2022/10/12 04:01:41;;;;;;;;;;;;;;;6.01;76.66;102376.56;5025822;28;20003;-61
2022/10/12 04:04:06;;;;;;;;;;;;;;;5.99;76.71;102374.03;5029504;28;19917;-61
2022/10/12 04:06:31;;;;;;;;;;;;;;;5.99;76.56;102375.81;5029665;28;19996;-61
2022/10/12 04:08:56;;;;;;;;;;;;;;;5.96;76.51;102370.75;5028306;28;20062;-61
2022/10/12 04:11:21;;;;;;;;;;;;;;;5.94;76.61;102365.56;5027215;28;20316;-61
2022/10/12 04:13:47;;;;;;;;;;;;;;;5.93;76.46;102363.88;5025344;28;20003;-61
2022/10/12 04:16:12;;;;;;;;;;;;;;;5.92;76.61;102367.47;5028186;28;19936;-61
2022/10/12 04:18:37;;;;;;;;;;;;;;;5.92;76.79;102366.63;5027837;28;19921;-61
2022/10/12 04:21:05;;;;;;;;;;;;;;;5.92;76.64;102364.00;5029715;28;19928;-61
2022/10/12 04:23:30;;;;;;;;;;;;;;;5.90;76.31;102366.75;5023563;28;19920;-61
2022/10/12 04:25:55;;;;;;;;;;;;;;;5.87;76.51;102373.03;5023787;28;19932;-61
2022/10/12 04:28:20;;;;;;;;;;;;;;;5.83;76.34;102363.63;5021418;28;19928;-61
2022/10/12 04:30:45;;;;;;;;;;;;;;;5.78;76.46;102376.28;5027584;28;20456;-61
2022/10/12 04:33:11;;;;;;;;;;;;;;;5.70;76.82;102370.66;5029722;28;19921;-61
2022/10/12 04:35:36;;;;;;;;;;;;;;;5.63;76.80;102369.38;5028987;28;19979;-61
2022/10/12 04:38:01;;;;;;;;;;;;;;;5.56;76.83;102366.31;5025885;28;19917;-61
2022/10/12 04:40:26;;;;;;;;;;;;;;;5.52;77.15;102367.47;5025632;28;20427;-60
2022/10/12 04:42:52;;;;;;;;;;;;;;;5.47;77.15;102364.25;5029507;28;19921;-60
2022/10/12 04:45:17;;;;;;;;;;;;;;;5.44;76.97;102376.78;5028415;28;19999;-60
2022/10/12 04:47:42;;;;;;;;;;;;;;;5.39;77.08;102377.09;5029872;28;20354;-60
2022/10/12 04:50:07;;;;;;;;;;;;;;;5.34;76.85;102379.19;5027129;28;20436;-60
2022/10/12 04:52:33;;;;;;;;;;;;;;;5.28;76.99;102377.78;5029021;28;19933;-61
2022/10/12 04:54:58;;;;;;;;;;;;;;;5.23;77.24;102381.66;5027963;28;19928;-60
2022/10/12 04:57:23;;;;;;;;;;;;;;;5.16;77.39;102380.34;5023603;28;20003;-61
2022/10/12 04:59:48;;;;;;;;;;;;;;;5.10;77.27;102384.22;5028659;28;19921;-60
2022/10/12 05:02:13;;;;;;;;;;;;;;;5.06;77.46;102376.63;5023481;28;19948;-61
2022/10/12 05:04:39;;;;;;;;;;;;;;;5.01;77.41;102374.28;5024902;28;19920;-61
2022/10/12 05:07:04;;;;;;;;;;;;;;;4.95;77.66;102372.88;5029070;28;19935;-60
2022/10/12 05:09:29;;;;;;;;;;;;;;;4.91;77.79;102379.25;5028154;28;19928;-61
2022/10/12 05:11:54;;;;;;;;;;;;;;;4.89;77.96;102369.75;5024916;28;20368;-61
2022/10/12 05:14:19;;;;;;;;;;;;;;;4.88;77.81;102374.19;5026828;28;19924;-59
2022/10/12 05:16:45;;;;;;;;;;;;;;;4.91;77.74;102374.00;5024724;28;19913;-60
2022/10/12 05:19:10;;;;;;;;;;;;;;;4.94;77.64;102368.56;5027681;28;20003;-60
2022/10/12 05:21:35;;;;;;;;;;;;;;;4.98;77.86;102359.53;5025689;28;19944;-61
2022/10/12 05:24:00;;;;;;;;;;;;;;;5.02;78.02;102354.91;5027517;28;19971;-61
2022/10/12 05:26:26;;;;;;;;;;;;;;;5.05;77.78;102357.34;5025892;28;19920;-61
2022/10/12 05:28:51;;;;;;;;;;;;;;;5.09;77.84;102357.97;5025608;28;19917;-61
2022/10/12 05:31:16;;;;;;;;;;;;;;;5.12;77.71;102349.88;5022627;28;19921;-61
2022/10/12 05:33:41;;;;;;;;;;;;;;;5.13;77.68;102351.56;5024247;28;21572;-61
2022/10/12 05:36:07;;;;;;;;;;;;;;;5.14;77.82;102350.63;5021472;28;19936;-61
2022/10/12 05:38:32;;;;;;;;;;;;;;;5.16;77.75;102351.38;5023776;28;20365;-61
2022/10/12 05:40:57;;;;;;;;;;;;;;;5.18;77.87;102352.13;5019026;28;19929;-61
2022/10/12 05:43:22;;;;;;;;;;;;;;;5.18;77.97;102363.50;5025132;28;19970;-60
2022/10/12 05:45:48;;;;;;;;;;;;;;;5.20;77.70;102355.50;5018234;28;19921;-61
2022/10/12 05:48:13;;;;;;;;;;;;;;;5.20;77.58;102352.88;5024837;28;20020;-61
2022/10/12 05:50:38;;;;;;;;;;;;;;;5.17;77.63;102364.44;5023091;28;19924;-61
2022/10/12 05:53:03;;;;;;;;;;;;;;;5.15;77.33;102355.81;5028568;28;19921;-60
2022/10/12 05:55:28;;;;;;;;;;;;;;;5.16;77.45;102360.13;5024491;28;19928;-61
2022/10/12 05:57:54;;;;;;;;;;;;;;;5.16;77.71;102356.63;5029533;28;20289;-60
2022/10/12 06:00:19;;;;;;;;;;;;;;;5.20;77.79;102358.13;5021174;28;19974;-60
2022/10/12 06:02:44;;;;;;;;;;;;;;;5.21;78.03;102363.34;5019251;28;20008;-61
2022/10/12 06:05:09;;;;;;;;;;;;;;;5.22;78.13;102353.63;5021828;28;19917;-61
2022/10/12 06:07:35;;;;;;;;;;;;;;;5.22;77.89;102358.91;5033745;28;20414;-61
2022/10/12 06:10:00;;;;;;;;;;;;;;;5.22;78.16;102362.38;5024908;28;19936;-60
2022/10/12 06:12:26;;;;;;;;;;;;;;;5.22;78.23;102361.53;5028850;28;20059;-61
2022/10/12 06:14:52;;;;;;;;;;;;;;;5.23;77.99;102357.97;5028881;28;19917;-61
2022/10/12 06:17:17;;;;;;;;;;;;;;;5.24;78.16;102359.66;5027049;28;20455;-61
2022/10/12 06:19:42;;;;;;;;;;;;;;;5.25;78.12;102359.56;5027564;28;19917;-60
2022/10/12 06:22:07;;;;;;;;;;;;;;;5.26;78.17;102357.75;5031122;28;19921;-60
2022/10/12 06:24:33;;;;;;;;;;;;;;;5.28;78.29;102355.88;5033533;28;20576;-60
2022/10/12 06:26:58;;;;;;;;;;;;;;;5.31;78.64;102354.81;5028597;28;19952;-61
2022/10/12 06:29:24;;;;;;;;;;;;;;;5.32;78.50;102351.25;5029850;28;19917;-60
2022/10/12 06:31:49;;;;;;;;;;;;;;;5.34;78.31;102339.66;5028976;28;19917;-60
2022/10/12 06:34:14;;;;;;;;;;;;;;;5.37;78.31;102344.72;5030834;28;20008;-61
2022/10/12 06:36:40;;;;;;;;;;;;;;;5.37;78.31;102339.47;5036506;28;19928;-60
2022/10/12 06:39:05;;;;;;;;;;;;;;;5.39;78.59;102345.47;5029368;28;20446;-60
2022/10/12 06:41:30;;;;;;;;;;;;;;;5.42;78.62;102349.69;5029365;28;19917;-60
2022/10/12 06:43:55;;;;;;;;;;;;;;;5.46;78.78;102349.38;5029611;28;20351;-60
2022/10/12 06:46:20;;;;;;;;;;;;;;;5.51;78.97;102349.13;5036957;28;19928;-61
2022/10/12 06:48:45;;;;;;;;;;;;;;;5.55;78.96;102350.59;5032229;28;19917;-60
2022/10/12 06:51:11;;;;;;;;;;;;;;;5.60;79.00;102343.22;5029571;28;20015;-60
2022/10/12 06:53:36;;;;;;;;;;;;;;;5.64;78.83;102349.13;5031646;28;20490;-61
2022/10/12 06:56:05;;;;;;;;;;;;;;;5.67;79.00;102346.28;5020595;28;19945;-61
2022/10/12 06:58:30;;;;;;;;;;;;;;;5.70;79.22;102344.28;5020213;28;20265;-60
2022/10/12 07:00:55;;;;;;;;;;;;;;;5.73;79.21;102341.47;5027357;28;20415;-60
2022/10/12 07:03:20;;;;;;;;;;;;;;;5.78;79.45;102346.41;5034444;28;19920;-60
2022/10/12 07:05:46;;;;;;;;;;;;;;;5.81;79.40;102344.44;5029378;28;19914;-60
2022/10/12 07:08:11;;;;;;;;;;;;;;;5.87;79.64;102340.53;5025606;28;20398;-60
2022/10/12 07:10:37;;;;;;;;;;;;;;;5.93;79.56;102344.59;5024409;28;19949;-60
2022/10/12 07:13:02;;;;;;;;;;;;;;;5.99;79.54;102354.72;5028076;28;20347;-60
2022/10/12 07:15:27;;;;;;;;;;;;;;;6.05;79.23;102338.47;5031897;28;20674;-61
2022/10/12 07:17:52;;;;;;;;;;;;;;;6.10;79.60;102336.38;5030205;28;19917;-61
2022/10/12 07:20:17;;;;;;;;;;;;;;;6.14;79.89;102343.97;5027408;28;19968;-61
2022/10/12 07:22:43;;;;;;;;;;;;;;;6.18;79.86;102334.91;5028660;28;19924;-59
2022/10/12 07:25:08;;;;;;;;;;;;;;;6.22;80.23;102332.91;5030240;28;19921;-61
2022/10/12 07:27:33;;;;;;;;;;;;;;;6.26;80.69;102334.38;5034795;28;19913;-61
2022/10/12 07:29:59;;;;;;;;;;;;;;;6.29;80.57;102331.53;5026523;28;19914;-61
2022/10/12 07:32:24;;;;;;;;;;;;;;;6.35;80.09;102330.25;5024339;28;20458;-62
2022/10/12 07:34:49;;;;;;;;;;;;;;;6.37;79.78;102329.22;5022656;28;19917;-61
2022/10/12 07:37:14;;;;;;;;;;;;;;;6.39;80.17;102335.22;5024259;28;20055;-61
2022/10/12 07:39:40;;;;;;;;;;;;;;;6.42;79.76;102334.16;5025429;28;19940;-61
2022/10/12 07:42:05;;;;;;;;;;;;;;;6.49;80.20;102338.06;5026806;28;19948;-61
2022/10/12 07:44:30;;;;;;;;;;;;;;;6.55;80.11;102344.69;5022265;28;20258;-61
2022/10/12 07:46:55;;;;;;;;;;;;;;;6.59;79.90;102348.81;5033200;28;19924;-61
2022/10/12 07:49:21;;;;;;;;;;;;;;;6.64;80.40;102344.88;5029866;28;20482;-61
2022/10/12 07:51:46;;;;;;;;;;;;;;;6.70;80.68;102349.75;5031791;28;19913;-61
2022/10/12 07:54:12;;;;;;;;;;;;;;;6.79;81.00;102346.44;5027824;28;19917;-61
2022/10/12 07:56:37;;;;;;;;;;;;;;;6.89;81.34;102346.63;5029477;28;19920;-61
2022/10/12 07:59:03;;;;;;;;;;;;;;;7.01;81.79;102347.56;5026542;28;20012;-61
2022/10/12 08:01:29;;;;;;;;;;;;;;;7.12;82.08;102352.91;5027690;28;19921;-61
2022/10/12 08:03:55;;;;;;;;;;;;;;;7.21;82.30;102348.75;5027892;28;19919;-61
2022/10/12 08:06:22;;;;;;;;;;;;;;;7.32;82.71;102354.13;5027695;28;19917;-61
2022/10/12 08:08:47;;;;;;;;;;;;;;;7.42;82.55;102349.81;5026473;28;19968;-60
2022/10/12 08:11:13;;;;;;;;;;;;;;;7.50;82.47;102352.75;5021851;28;19951;-61
2022/10/12 08:13:38;;;;;;;;;;;;;;;7.57;82.45;102354.00;5026906;28;19928;-61
2022/10/12 08:16:05;;;;;;;;;;;;;;;7.64;82.34;102349.09;5023099;28;19921;-60
2022/10/12 08:18:30;;;;;;;;;;;;;;;7.68;82.75;102351.38;5028839;28;19924;-60
2022/10/12 08:20:55;;;;;;;;;;;;;;;7.74;82.72;102350.91;5027457;28;19929;-60
2022/10/12 08:23:21;;;;;;;;;;;;;;;7.80;82.61;102354.91;5024752;28;20020;-60
2022/10/12 08:25:53;;;;;;;;;;;;;;;7.85;82.72;102347.50;5028437;28;20006;-61
2022/10/12 08:28:18;;;;;;;;;;;;;;;7.90;82.78;102347.97;5033271;28;19964;-61
2022/10/12 08:30:43;;;;;;;;;;;;;;;7.95;82.85;102351.09;5026920;28;19956;-60
2022/10/12 08:33:08;;;;;;;;;;;;;;;8.03;82.85;102340.78;5026904;28;19913;-61
2022/10/12 08:35:36;;;;;;;;;;;;;;;8.14;82.98;102352.38;5025894;28;19924;-61
2022/10/12 08:38:01;;;;;;;;;;;;;;;8.23;83.02;102339.25;5031659;28;20364;-61
2022/10/12 08:40:31;;;;;;;;;;;;;;;8.35;83.17;102343.63;5027810;28;19943;-60
2022/10/12 08:43:09;;;;;;;;;;;;;;;8.45;82.98;102334.97;5027036;28;19925;-61
2022/10/12 08:45:52;;;;;;;;;;;;;;;8.55;82.88;102338.59;5024689;28;19948;-61
2022/10/12 08:48:20;;;;;;;;;;;;;;;8.67;83.03;102335.81;5026521;28;19917;-60
2022/10/12 08:50:51;;;;;;;;;;;;;;;8.77;83.05;102340.38;5026032;28;20402;-61
2022/10/12 08:53:43;;;;;;;;;;;;;;;8.87;82.83;102339.53;5026706;28;19921;-60
2022/10/12 08:56:08;;;;;;;;;;;;;;;8.98;82.76;102342.16;5032994;28;19936;-60
2022/10/12 08:58:36;;;;;;;;;;;;;;;9.08;82.92;102339.59;5033184;28;19972;-60
2022/10/12 09:01:10;;;;;;;;;;;;;;;9.19;82.70;102334.25;5024665;28;20344;-61
2022/10/12 09:03:48;;;;;;;;;;;;;;;9.30;82.84;102334.25;5031197;28;19917;-60
2022/10/12 09:06:17;;;;;;;;;;;;;;;9.40;82.87;102339.63;5020826;28;19917;-60
2022/10/12 09:08:57;;;;;;;;;;;;;;;9.49;82.66;102340.69;5025033;28;20459;-60
2022/10/12 09:11:44;;;;;;;;;;;;;;;9.61;82.60;102337.03;5025725;28;20407;-61
2022/10/12 09:14:22;;;;;;;;;;;;;;;9.72;82.40;102350.22;5022839;28;19917;-60
2022/10/12 09:16:49;;;;;;;;;;;;;;;9.84;82.97;102349.22;5027077;28;19913;-60
2022/10/12 09:19:14;;;;;;;;;;;;;;;9.96;82.69;102351.78;5026829;28;19917;-61
2022/10/12 09:21:40;;;;;;;;;;;;;;;10.04;82.49;102352.81;5026277;28;20404;-60
2022/10/12 09:24:12;;;;;;;;;;;;;;;10.11;81.99;102353.97;5029260;28;20380;-60
2022/10/12 09:26:38;;;;;;;;;;;;;;;10.18;82.06;102351.66;5026863;28;19917;-60
2022/10/12 09:29:33;;;;;;;;;;;;;;;10.18;81.46;102341.03;5025174;28;19932;-60
2022/10/12 09:32:00;;;;;;;;;;;;;;;10.23;81.28;102352.16;5005257;28;19921;-60
2022/10/12 09:34:26;;;;;;;;;;;;;;;10.26;81.10;102337.75;5025640;28;19967;-60
2022/10/12 09:36:52;;;;;;;;;;;;;;;10.30;81.35;102340.00;5022856;28;19917;-61
2022/10/12 09:39:19;;;;;;;;;;;;;;;10.32;81.13;102339.88;5025472;28;19924;-61
2022/10/12 09:41:45;;;;;;;;;;;;;;;10.39;80.61;102341.88;5029905;28;20011;-61
2022/10/12 09:44:31;;;;;;;;;;;;;;;10.47;80.43;102346.53;5027969;28;19956;-60
2022/10/12 09:46:58;;;;;;;;;;;;;;;10.56;80.64;102351.03;5028290;28;19931;-60
2022/10/12 09:49:43;;;;;;;;;;;;;;;10.63;80.47;102351.34;5021873;28;20004;-60
2022/10/12 09:52:08;;;;;;;;;;;;;;;10.72;80.49;102340.78;5030351;28;19917;-60
2022/10/12 09:54:34;;;;;;;;;;;;;;;10.82;80.93;102349.59;5024520;28;20293;-60
2022/10/12 09:56:59;;;;;;;;;;;;;;;10.90;80.26;102350.75;5035183;28;20471;-61
2022/10/12 09:59:30;;;;;;;;;;;;;;;10.96;79.72;102352.84;5028379;28;19913;-61
2022/10/12 10:01:57;;;;;;;;;;;;;;;11.03;79.55;102346.03;5031370;28;20586;-60
2022/10/12 10:04:23;;;;;;;;;;;;;;;11.11;79.73;102336.38;5027446;28;19917;-60
2022/10/12 10:06:48;;;;;;;;;;;;;;;11.16;79.33;102330.66;5028165;28;19917;-61
2022/10/12 10:09:28;;;;;;;;;;;;;;;11.25;78.83;102327.16;5022048;28;19921;-60
2022/10/12 10:11:53;;;;;;;;;;;;;;;11.32;78.39;102317.66;5030949;28;19932;-60
2022/10/12 10:14:18;;;;;;;;;;;;;;;11.42;78.32;102312.34;5028746;28;19925;-61
2022/10/12 10:16:48;;;;;;;;;;;;;;;11.53;78.57;102314.00;5025353;28;19917;-61
2022/10/12 10:19:17;;;;;;;;;;;;;;;11.62;78.33;102314.03;5028600;28;19912;-60
2022/10/12 10:21:43;;;;;;;;;;;;;;;11.73;78.32;102313.03;5030117;28;19924;-61
2022/10/12 10:24:28;;;;;;;;;;;;;;;11.82;78.15;102322.84;5030880;28;19917;-61
2022/10/12 10:26:57;;;;;;;;;;;;;;;11.88;77.02;102313.47;5025158;28;20288;-61
2022/10/12 10:29:28;;;;;;;;;;;;;;;11.96;76.78;102318.91;5022626;28;20303;-61
2022/10/12 10:32:13;;;;;;;;;;;;;;;12.02;76.04;102321.00;5031854;28;20335;-61
2022/10/12 10:34:40;;;;;;;;;;;;;;;12.05;75.20;102324.19;5029358;28;20403;-61
2022/10/12 10:37:06;;;;;;;;;;;;;;;12.14;75.08;102324.31;5032637;28;19925;-61
2022/10/12 10:39:45;;;;;;;;;;;;;;;12.22;74.96;102319.97;5030353;28;20258;-61
2022/10/12 10:42:18;;;;;;;;;;;;;;;12.33;74.60;102325.09;5026269;28;19952;-61
2022/10/12 10:44:50;;;;;;;;;;;;;;;12.40;74.14;102320.88;5026986;28;20380;-60
2022/10/12 10:47:16;;;;;;;;;;;;;;;12.49;74.44;102315.66;5036142;28;20299;-61
2022/10/12 10:49:41;;;;;;;;;;;;;;;12.54;74.09;102314.22;5027475;28;20011;-61
2022/10/12 10:52:16;;;;;;;;;;;;;;;12.60;74.24;102310.97;5030933;28;20277;-61
2022/10/12 10:54:42;;;;;;;;;;;;;;;12.67;74.43;102304.06;5033014;28;19960;-61
2022/10/12 10:57:10;;;;;;;;;;;;;;;12.72;73.94;102300.94;5027228;28;19921;-61
2022/10/12 10:59:38;;;;;;;;;;;;;;;12.76;73.89;102289.00;5029944;28;19925;-61
2022/10/12 11:02:12;;;;;;;;;;;;;;;12.85;73.77;102298.78;5023178;28;20028;-61
2022/10/12 11:04:40;;;;;;;;;;;;;;;12.95;73.35;102298.69;5028067;28;19920;-61
2022/10/12 11:07:15;;;;;;;;;;;;;;;13.06;73.06;102295.00;5029859;28;20283;-61
2022/10/12 11:09:42;;;;;;;;;;;;;;;13.18;73.04;102286.63;5028473;28;19917;-61
2022/10/12 11:12:12;;;;;;;;;;;;;;;13.26;72.94;102278.72;5034912;28;20917;-61
2022/10/12 11:14:46;;;;;;;;;;;;;;;13.35;72.35;102278.81;5032632;28;19917;-60
2022/10/12 11:17:16;;;;;;;;;;;;;;;13.47;71.42;102281.06;5027312;28;20403;-60
2022/10/12 11:19:48;;;;;;;;;;;;;;;13.65;71.14;102267.69;5022359;28;19921;-60
2022/10/12 11:22:16;;;;;;;;;;;;;;;13.82;71.04;102263.28;5031956;28;19913;-60
2022/10/12 11:24:52;;;;;;;;;;;;;;;13.91;71.38;102252.53;5030122;28;19913;-61
2022/10/12 11:27:34;;;;;;;;;;;;;;;14.04;71.34;102246.75;5026441;28;19920;-60
2022/10/12 11:30:00;;;;;;;;;;;;;;;14.10;71.12;102240.75;5033601;28;20409;-60
2022/10/12 11:32:35;;;;;;;;;;;;;;;14.17;70.43;102235.63;5028896;28;20296;-60
2022/10/12 11:35:02;;;;;;;;;;;;;;;14.28;69.40;102240.69;5025956;28;19913;-60
2022/10/12 11:37:32;;;;;;;;;;;;;;;14.46;69.62;102227.28;5027809;28;19928;-60
2022/10/12 11:39:58;;;;;;;;;;;;;;;14.52;69.62;102219.44;5025102;28;19925;-60
2022/10/12 11:42:27;;;;;;;;;;;;;;;14.55;69.34;102213.75;5027131;28;19917;-60
2022/10/12 11:44:53;;;;;;;;;;;;;;;14.55;69.19;102215.59;5031842;28;19952;-60
2022/10/12 11:47:31;;;;;;;;;;;;;;;14.53;69.03;102207.75;5029068;28;20015;-60
2022/10/12 11:49:59;;;;;;;;;;;;;;;14.54;68.90;102206.75;5023665;28;19963;-60
2022/10/12 11:52:25;;;;;;;;;;;;;;;14.54;68.97;102206.75;5024854;28;19924;-60
2022/10/12 11:55:14;;;;;;;;;;;;;;;14.53;68.63;102213.09;5028694;28;19917;-60
2022/10/12 11:57:39;;;;;;;;;;;;;;;14.60;68.44;102217.78;5029813;28;20446;-60
2022/10/12 12:00:15;;;;;;;;;;;;;;;14.71;68.43;102215.63;5026067;28;20542;-60
2022/10/12 12:02:41;;;;;;;;;;;;;;;14.79;68.13;102217.50;5023404;28;19917;-60
2022/10/12 12:05:11;;;;;;;;;;;;;;;14.80;67.57;102222.69;5023896;28;19936;-60
2022/10/12 12:07:44;;;;;;;;;;;;;;;14.83;65.48;102214.31;5029182;28;19996;-60
2022/10/12 12:10:30;;;;;;;;;;;;;;;14.84;63.90;102225.84;5021877;28;19921;-61
2022/10/12 12:13:17;;;;;;;;;;;;;;;14.80;62.53;102214.66;5023557;28;19917;-61
2022/10/12 12:15:51;;;;;;;;;;;;;;;14.81;62.60;102223.50;5024837;28;19920;-61
2022/10/12 12:18:19;;;;;;;;;;;;;;;14.86;63.22;102223.84;5022576;28;19921;-61
2022/10/12 12:20:45;;;;;;;;;;;;;;;14.92;62.93;102214.31;5025709;28;20801;-61
2022/10/12 12:23:29;;;;;;;;;;;;;;;14.94;64.02;102210.47;5025217;28;19936;-60
2022/10/12 12:26:09;;;;;;;;;;;;;;;14.93;62.87;102210.66;5027171;28;19917;-61
2022/10/12 12:28:35;;;;;;;;;;;;;;;14.83;60.79;102208.13;5032526;28;19996;-61
2022/10/12 12:31:04;;;;;;;;;;;;;;;14.76;61.00;102201.78;5026020;28;20291;-61
2022/10/12 12:33:37;;;;;;;;;;;;;;;14.82;61.98;102198.44;5025872;28;20008;-61
2022/10/12 12:36:06;;;;;;;;;;;;;;;14.91;62.04;102200.13;5025787;28;20518;-60
2022/10/12 12:38:50;;;;;;;;;;;;;;;14.96;61.26;102187.06;5027860;28;19921;-60
2022/10/12 12:41:17;;;;;;;;;;;;;;;14.99;60.59;102185.91;5032298;28;19921;-60
2022/10/12 12:43:55;;;;;;;;;;;;;;;15.00;60.67;102180.38;5023690;28;19928;-60
2022/10/12 12:46:20;;;;;;;;;;;;;;;15.07;61.34;102180.56;5031418;28;20402;-60